sensor_id;sensor_type;location;lat;lon;timestamp;temperature;humidity
8611;DHT22;4343;53.648;10.098;2023-06-10T00:01:46;15.70;99.90
8611;DHT22;4343;53.648;10.098;2023-06-10T00:04:15;15.60;99.90
8611;DHT22;4343;53.648;10.098;2023-06-10T00:06:43;15.60;99.90
8611;DHT22;4343;53.648;10.098;2023-06-10T00:09:09;15.60;99.90
8611;DHT22;4343;53.648;10.098;2023-06-10T00:11:38;15.50;99.90
8611;DHT22;4343;53.648;10.098;2023-06-10T00:14:04;15.50;99.90
8611;DHT22;4343;53.648;10.098;2023-06-10T00:16:30;15.40;99.90
8611;DHT22;4343;53.648;10.098;2023-06-10T00:18:55;15.40;99.90
8611;DHT22;4343;53.648;10.098;2023-06-10T00:21:25;15.40;99.90
8611;DHT22;4343;53.648;10.098;2023-06-10T00:23:51;15.40;99.90
8611;DHT22;4343;53.648;10.098;2023-06-10T00:26:17;15.40;99.90
8611;DHT22;4343;53.648;10.098;2023-06-10T00:28:42;15.30;99.90
8611;DHT22;4343;53.648;10.098;2023-06-10T00:31:10;15.30;99.90
8611;DHT22;4343;53.648;10.098;2023-06-10T00:33:35;15.20;99.90
8611;DHT22;4343;53.648;10.098;2023-06-10T00:36:01;15.20;99.90
8611;DHT22;4343;53.648;10.098;2023-06-10T00:38:27;15.20;99.90
8611;DHT22;4343;53.648;10.098;2023-06-10T00:40:52;15.10;99.90
8611;DHT22;4343;53.648;10.098;2023-06-10T00:43:18;15.10;99.90
8611;DHT22;4343;53.648;10.098;2023-06-10T00:45:43;15.00;99.90
8611;DHT22;4343;53.648;10.098;2023-06-10T00:48:09;15.10;99.90
8611;DHT22;4343;53.648;10.098;2023-06-10T00:50:35;15.00;99.90
8611;DHT22;4343;53.648;10.098;2023-06-10T00:53:04;15.00;99.90
8611;DHT22;4343;53.648;10.098;2023-06-10T00:55:32;15.00;99.90
8611;DHT22;4343;53.648;10.098;2023-06-10T00:57:58;14.90;99.90
8611;DHT22;4343;53.648;10.098;2023-06-10T01:00:25;14.90;99.90
8611;DHT22;4343;53.648;10.098;2023-06-10T01:02:51;14.90;99.90
8611;DHT22;4343;53.648;10.098;2023-06-10T01:05:17;14.90;99.90
8611;DHT22;4343;53.648;10.098;2023-06-10T01:08:39;14.80;99.90
8611;DHT22;4343;53.648;10.098;2023-06-10T01:10:42;14.80;99.90
8611;DHT22;4343;53.648;10.098;2023-06-10T01:13:11;14.80;99.90
8611;DHT22;4343;53.648;10.098;2023-06-10T01:15:39;14.70;99.90
8611;DHT22;4343;53.648;10.098;2023-06-10T01:18:09;14.60;99.90
8611;DHT22;4343;53.648;10.098;2023-06-10T01:20:37;14.60;99.90
8611;DHT22;4343;53.648;10.098;2023-06-10T01:23:05;14.50;99.90
8611;DHT22;4343;53.648;10.098;2023-06-10T01:25:31;14.50;99.90
8611;DHT22;4343;53.648;10.098;2023-06-10T01:28:07;14.50;99.90
8611;DHT22;4343;53.648;10.098;2023-06-10T01:30:48;14.40;99.90
8611;DHT22;4343;53.648;10.098;2023-06-10T01:33:18;14.40;99.90
8611;DHT22;4343;53.648;10.098;2023-06-10T01:35:48;14.40;99.90
8611;DHT22;4343;53.648;10.098;2023-06-10T01:38:14;14.40;99.90
8611;DHT22;4343;53.648;10.098;2023-06-10T01:40:41;14.40;99.90
8611;DHT22;4343;53.648;10.098;2023-06-10T01:43:07;14.40;99.90
8611;DHT22;4343;53.648;10.098;2023-06-10T01:45:33;14.30;99.90
8611;DHT22;4343;53.648;10.098;2023-06-10T01:47:58;14.30;99.90
8611;DHT22;4343;53.648;10.098;2023-06-10T01:50:24;14.30;99.90
8611;DHT22;4343;53.648;10.098;2023-06-10T01:52:49;14.30;99.90
8611;DHT22;4343;53.648;10.098;2023-06-10T01:55:15;14.30;99.90
8611;DHT22;4343;53.648;10.098;2023-06-10T01:57:40;14.20;99.90
8611;DHT22;4343;53.648;10.098;2023-06-10T02:00:06;14.20;99.90
8611;DHT22;4343;53.648;10.098;2023-06-10T02:02:33;14.20;99.90
8611;DHT22;4343;53.648;10.098;2023-06-10T02:04:58;14.20;99.90
8611;DHT22;4343;53.648;10.098;2023-06-10T02:07:24;14.20;99.90
8611;DHT22;4343;53.648;10.098;2023-06-10T02:09:49;14.10;99.90
8611;DHT22;4343;53.648;10.098;2023-06-10T02:12:15;14.10;99.90
8611;DHT22;4343;53.648;10.098;2023-06-10T02:14:40;14.10;99.90
8611;DHT22;4343;53.648;10.098;2023-06-10T02:17:06;14.10;99.90
8611;DHT22;4343;53.648;10.098;2023-06-10T02:19:32;14.10;99.90
8611;DHT22;4343;53.648;10.098;2023-06-10T02:21:57;14.10;99.90
8611;DHT22;4343;53.648;10.098;2023-06-10T02:24:23;14.00;99.90
8611;DHT22;4343;53.648;10.098;2023-06-10T02:26:48;14.00;99.90
8611;DHT22;4343;53.648;10.098;2023-06-10T02:29:14;14.00;99.90
8611;DHT22;4343;53.648;10.098;2023-06-10T02:31:39;14.00;99.90
8611;DHT22;4343;53.648;10.098;2023-06-10T02:34:06;14.00;99.90
8611;DHT22;4343;53.648;10.098;2023-06-10T02:36:31;13.90;99.90
8611;DHT22;4343;53.648;10.098;2023-06-10T02:38:57;13.90;99.90
8611;DHT22;4343;53.648;10.098;2023-06-10T02:41:22;13.90;99.90
8611;DHT22;4343;53.648;10.098;2023-06-10T02:43:50;13.80;99.90
8611;DHT22;4343;53.648;10.098;2023-06-10T02:46:15;13.80;99.90
8611;DHT22;4343;53.648;10.098;2023-06-10T02:48:42;13.80;99.90
8611;DHT22;4343;53.648;10.098;2023-06-10T02:51:08;13.80;99.90
8611;DHT22;4343;53.648;10.098;2023-06-10T02:53:34;13.80;99.90
8611;DHT22;4343;53.648;10.098;2023-06-10T02:55:59;13.80;99.90
8611;DHT22;4343;53.648;10.098;2023-06-10T02:58:25;13.70;99.90
8611;DHT22;4343;53.648;10.098;2023-06-10T03:00:51;13.70;99.90
8611;DHT22;4343;53.648;10.098;2023-06-10T03:03:17;13.70;99.90
8611;DHT22;4343;53.648;10.098;2023-06-10T03:05:42;13.70;99.90
8611;DHT22;4343;53.648;10.098;2023-06-10T03:08:08;13.60;99.90
8611;DHT22;4343;53.648;10.098;2023-06-10T03:10:33;13.70;99.90
8611;DHT22;4343;53.648;10.098;2023-06-10T03:12:59;13.60;99.90
8611;DHT22;4343;53.648;10.098;2023-06-10T03:15:24;13.60;99.90
8611;DHT22;4343;53.648;10.098;2023-06-10T03:17:50;13.60;99.90
8611;DHT22;4343;53.648;10.098;2023-06-10T03:20:15;13.60;99.90
8611;DHT22;4343;53.648;10.098;2023-06-10T03:22:42;13.60;99.90
8611;DHT22;4343;53.648;10.098;2023-06-10T03:25:08;13.60;99.90
8611;DHT22;4343;53.648;10.098;2023-06-10T03:27:39;13.50;99.90
8611;DHT22;4343;53.648;10.098;2023-06-10T03:30:05;13.50;99.90
8611;DHT22;4343;53.648;10.098;2023-06-10T03:32:31;13.50;99.90
8611;DHT22;4343;53.648;10.098;2023-06-10T03:34:57;13.50;99.90
8611;DHT22;4343;53.648;10.098;2023-06-10T03:37:24;13.50;99.90
8611;DHT22;4343;53.648;10.098;2023-06-10T03:39:49;13.50;99.90
8611;DHT22;4343;53.648;10.098;2023-06-10T03:42:15;13.40;99.90
8611;DHT22;4343;53.648;10.098;2023-06-10T03:44:41;13.40;99.90
8611;DHT22;4343;53.648;10.098;2023-06-10T03:47:06;13.50;99.90
8611;DHT22;4343;53.648;10.098;2023-06-10T03:49:32;13.40;99.90
8611;DHT22;4343;53.648;10.098;2023-06-10T03:51:58;13.40;99.90
8611;DHT22;4343;53.648;10.098;2023-06-10T03:54:24;13.50;99.90
8611;DHT22;4343;53.648;10.098;2023-06-10T03:56:49;13.50;99.90
8611;DHT22;4343;53.648;10.098;2023-06-10T03:59:16;13.50;99.90
8611;DHT22;4343;53.648;10.098;2023-06-10T04:01:41;13.50;99.90
8611;DHT22;4343;53.648;10.098;2023-06-10T04:04:07;13.50;99.90
8611;DHT22;4343;53.648;10.098;2023-06-10T04:06:32;13.50;99.90
8611;DHT22;4343;53.648;10.098;2023-06-10T04:08:58;13.50;99.90
8611;DHT22;4343;53.648;10.098;2023-06-10T04:11:24;13.50;99.90
8611;DHT22;4343;53.648;10.098;2023-06-10T04:13:50;13.50;99.90
8611;DHT22;4343;53.648;10.098;2023-06-10T04:16:16;13.50;99.90
8611;DHT22;4343;53.648;10.098;2023-06-10T04:18:41;13.60;99.90
8611;DHT22;4343;53.648;10.098;2023-06-10T04:21:07;13.60;99.90
8611;DHT22;4343;53.648;10.098;2023-06-10T04:23:34;13.60;99.90
8611;DHT22;4343;53.648;10.098;2023-06-10T04:26:00;13.60;99.90
8611;DHT22;4343;53.648;10.098;2023-06-10T04:28:26;13.60;99.90
8611;DHT22;4343;53.648;10.098;2023-06-10T04:30:52;13.60;99.90
8611;DHT22;4343;53.648;10.098;2023-06-10T04:33:17;13.70;99.90
8611;DHT22;4343;53.648;10.098;2023-06-10T04:35:43;13.70;99.90
8611;DHT22;4343;53.648;10.098;2023-06-10T04:38:08;13.70;99.90
8611;DHT22;4343;53.648;10.098;2023-06-10T04:40:34;13.80;99.90
8611;DHT22;4343;53.648;10.098;2023-06-10T04:42:59;13.80;99.90
8611;DHT22;4343;53.648;10.098;2023-06-10T04:45:25;13.80;99.90
8611;DHT22;4343;53.648;10.098;2023-06-10T04:47:51;13.90;99.90
8611;DHT22;4343;53.648;10.098;2023-06-10T04:50:16;14.00;99.90
8611;DHT22;4343;53.648;10.098;2023-06-10T04:52:42;14.00;99.90
8611;DHT22;4343;53.648;10.098;2023-06-10T04:55:08;14.00;99.90
8611;DHT22;4343;53.648;10.098;2023-06-10T04:57:34;14.10;99.90
8611;DHT22;4343;53.648;10.098;2023-06-10T04:59:59;14.10;99.90
8611;DHT22;4343;53.648;10.098;2023-06-10T05:02:25;14.20;99.90
8611;DHT22;4343;53.648;10.098;2023-06-10T05:04:50;14.20;99.90
8611;DHT22;4343;53.648;10.098;2023-06-10T05:07:16;14.30;99.90
8611;DHT22;4343;53.648;10.098;2023-06-10T05:09:41;14.30;99.90
8611;DHT22;4343;53.648;10.098;2023-06-10T05:12:07;14.40;99.90
8611;DHT22;4343;53.648;10.098;2023-06-10T05:14:34;14.50;99.90
8611;DHT22;4343;53.648;10.098;2023-06-10T05:16:59;14.50;99.90
8611;DHT22;4343;53.648;10.098;2023-06-10T05:19:25;14.60;99.90
8611;DHT22;4343;53.648;10.098;2023-06-10T05:21:50;14.70;99.90
8611;DHT22;4343;53.648;10.098;2023-06-10T05:24:16;14.80;99.90
8611;DHT22;4343;53.648;10.098;2023-06-10T05:26:41;14.90;99.90
8611;DHT22;4343;53.648;10.098;2023-06-10T05:29:07;15.00;99.90
8611;DHT22;4343;53.648;10.098;2023-06-10T05:31:36;15.10;99.90
8611;DHT22;4343;53.648;10.098;2023-06-10T05:34:02;15.20;99.90
8611;DHT22;4343;53.648;10.098;2023-06-10T05:36:27;15.30;99.90
8611;DHT22;4343;53.648;10.098;2023-06-10T05:38:53;15.50;99.90
8611;DHT22;4343;53.648;10.098;2023-06-10T05:41:18;15.60;99.90
8611;DHT22;4343;53.648;10.098;2023-06-10T05:43:44;15.70;99.90
8611;DHT22;4343;53.648;10.098;2023-06-10T05:46:09;15.80;99.90
8611;DHT22;4343;53.648;10.098;2023-06-10T05:48:35;15.90;99.90
8611;DHT22;4343;53.648;10.098;2023-06-10T05:51:00;16.10;99.90
8611;DHT22;4343;53.648;10.098;2023-06-10T05:53:26;16.20;99.90
8611;DHT22;4343;53.648;10.098;2023-06-10T05:55:52;16.30;99.90
8611;DHT22;4343;53.648;10.098;2023-06-10T05:58:20;16.40;99.90
8611;DHT22;4343;53.648;10.098;2023-06-10T06:00:45;16.50;99.90
8611;DHT22;4343;53.648;10.098;2023-06-10T06:03:11;16.60;99.90
8611;DHT22;4343;53.648;10.098;2023-06-10T06:05:37;16.80;99.90
8611;DHT22;4343;53.648;10.098;2023-06-10T06:08:04;16.90;99.90
8611;DHT22;4343;53.648;10.098;2023-06-10T06:10:30;17.00;99.90
8611;DHT22;4343;53.648;10.098;2023-06-10T06:12:56;17.10;99.90
8611;DHT22;4343;53.648;10.098;2023-06-10T06:15:22;17.30;99.90
8611;DHT22;4343;53.648;10.098;2023-06-10T06:17:47;17.40;99.90
8611;DHT22;4343;53.648;10.098;2023-06-10T06:20:13;17.50;99.90
8611;DHT22;4343;53.648;10.098;2023-06-10T06:22:38;17.60;99.90
8611;DHT22;4343;53.648;10.098;2023-06-10T06:25:04;17.70;99.90
8611;DHT22;4343;53.648;10.098;2023-06-10T06:27:31;17.80;99.90
8611;DHT22;4343;53.648;10.098;2023-06-10T06:29:56;17.90;99.90
8611;DHT22;4343;53.648;10.098;2023-06-10T06:32:22;18.10;99.90
8611;DHT22;4343;53.648;10.098;2023-06-10T06:34:50;18.20;99.90
8611;DHT22;4343;53.648;10.098;2023-06-10T06:37:23;18.40;99.90
8611;DHT22;4343;53.648;10.098;2023-06-10T06:39:52;18.50;99.90
8611;DHT22;4343;53.648;10.098;2023-06-10T06:42:18;18.60;99.90
8611;DHT22;4343;53.648;10.098;2023-06-10T06:44:44;18.80;99.90
8611;DHT22;4343;53.648;10.098;2023-06-10T06:47:10;18.90;99.90
8611;DHT22;4343;53.648;10.098;2023-06-10T06:49:35;19.00;99.90
8611;DHT22;4343;53.648;10.098;2023-06-10T06:52:01;19.20;99.90
8611;DHT22;4343;53.648;10.098;2023-06-10T06:54:27;19.30;99.90
8611;DHT22;4343;53.648;10.098;2023-06-10T06:56:52;19.40;99.90
8611;DHT22;4343;53.648;10.098;2023-06-10T06:59:18;19.40;99.90
8611;DHT22;4343;53.648;10.098;2023-06-10T07:01:45;19.60;99.90
8611;DHT22;4343;53.648;10.098;2023-06-10T07:04:11;19.70;99.90
8611;DHT22;4343;53.648;10.098;2023-06-10T07:06:36;19.80;99.90
8611;DHT22;4343;53.648;10.098;2023-06-10T07:09:04;19.80;99.90
8611;DHT22;4343;53.648;10.098;2023-06-10T07:11:30;19.80;99.90
8611;DHT22;4343;53.648;10.098;2023-06-10T07:13:55;19.90;99.90
8611;DHT22;4343;53.648;10.098;2023-06-10T07:16:21;20.00;99.90
8611;DHT22;4343;53.648;10.098;2023-06-10T07:18:47;20.20;99.90
8611;DHT22;4343;53.648;10.098;2023-06-10T07:21:12;20.40;99.90
8611;DHT22;4343;53.648;10.098;2023-06-10T07:23:41;20.40;99.90
8611;DHT22;4343;53.648;10.098;2023-06-10T07:26:07;20.50;99.90
8611;DHT22;4343;53.648;10.098;2023-06-10T07:28:36;20.60;99.90
8611;DHT22;4343;53.648;10.098;2023-06-10T07:31:02;20.70;99.90
8611;DHT22;4343;53.648;10.098;2023-06-10T07:33:28;20.80;99.90
8611;DHT22;4343;53.648;10.098;2023-06-10T07:35:53;20.80;99.90
8611;DHT22;4343;53.648;10.098;2023-06-10T07:38:19;20.90;99.90
8611;DHT22;4343;53.648;10.098;2023-06-10T07:40:45;21.00;99.90
8611;DHT22;4343;53.648;10.098;2023-06-10T07:43:11;21.00;99.90
8611;DHT22;4343;53.648;10.098;2023-06-10T07:45:36;21.00;99.90
8611;DHT22;4343;53.648;10.098;2023-06-10T07:48:04;21.00;99.90
8611;DHT22;4343;53.648;10.098;2023-06-10T07:50:30;21.00;99.90
8611;DHT22;4343;53.648;10.098;2023-06-10T07:52:55;21.00;99.90
8611;DHT22;4343;53.648;10.098;2023-06-10T07:55:21;21.10;99.90
8611;DHT22;4343;53.648;10.098;2023-06-10T07:57:46;21.20;99.90
8611;DHT22;4343;53.648;10.098;2023-06-10T08:00:12;21.30;99.90
8611;DHT22;4343;53.648;10.098;2023-06-10T08:02:38;21.40;99.90
8611;DHT22;4343;53.648;10.098;2023-06-10T08:05:04;21.40;99.90
8611;DHT22;4343;53.648;10.098;2023-06-10T08:07:29;21.60;99.90
8611;DHT22;4343;53.648;10.098;2023-06-10T08:09:56;21.70;99.90
8611;DHT22;4343;53.648;10.098;2023-06-10T08:12:21;21.70;99.90
8611;DHT22;4343;53.648;10.098;2023-06-10T08:14:47;21.90;99.90
8611;DHT22;4343;53.648;10.098;2023-06-10T08:17:13;21.90;99.90
8611;DHT22;4343;53.648;10.098;2023-06-10T08:19:38;22.00;99.90
8611;DHT22;4343;53.648;10.098;2023-06-10T08:22:04;22.10;99.90
8611;DHT22;4343;53.648;10.098;2023-06-10T08:24:29;22.20;99.90
8611;DHT22;4343;53.648;10.098;2023-06-10T08:26:55;22.40;99.90
8611;DHT22;4343;53.648;10.098;2023-06-10T08:29:22;22.60;99.90
8611;DHT22;4343;53.648;10.098;2023-06-10T08:31:48;22.70;99.90
8611;DHT22;4343;53.648;10.098;2023-06-10T08:34:14;22.90;99.90
8611;DHT22;4343;53.648;10.098;2023-06-10T08:36:39;23.00;99.90
8611;DHT22;4343;53.648;10.098;2023-06-10T08:39:05;23.10;99.90
8611;DHT22;4343;53.648;10.098;2023-06-10T08:41:35;23.20;99.90
8611;DHT22;4343;53.648;10.098;2023-06-10T08:44:22;23.30;99.90
8611;DHT22;4343;53.648;10.098;2023-06-10T08:46:50;23.40;99.90
8611;DHT22;4343;53.648;10.098;2023-06-10T08:49:22;23.50;99.90
8611;DHT22;4343;53.648;10.098;2023-06-10T08:51:55;23.60;99.90
8611;DHT22;4343;53.648;10.098;2023-06-10T08:54:28;23.70;99.90
8611;DHT22;4343;53.648;10.098;2023-06-10T08:56:57;23.70;99.90
8611;DHT22;4343;53.648;10.098;2023-06-10T08:59:25;23.80;99.90
8611;DHT22;4343;53.648;10.098;2023-06-10T09:01:52;23.90;99.90
8611;DHT22;4343;53.648;10.098;2023-06-10T09:04:18;24.10;99.90
8611;DHT22;4343;53.648;10.098;2023-06-10T09:06:44;24.20;99.90
8611;DHT22;4343;53.648;10.098;2023-06-10T09:09:12;24.30;99.90
8611;DHT22;4343;53.648;10.098;2023-06-10T09:11:42;24.40;99.90
8611;DHT22;4343;53.648;10.098;2023-06-10T09:14:08;24.50;99.90
8611;DHT22;4343;53.648;10.098;2023-06-10T09:16:34;24.50;99.90
8611;DHT22;4343;53.648;10.098;2023-06-10T09:18:59;24.60;99.90
8611;DHT22;4343;53.648;10.098;2023-06-10T09:21:25;24.70;99.90
8611;DHT22;4343;53.648;10.098;2023-06-10T09:23:51;24.80;99.90
8611;DHT22;4343;53.648;10.098;2023-06-10T09:26:16;24.90;99.90
8611;DHT22;4343;53.648;10.098;2023-06-10T09:28:49;25.00;99.90
8611;DHT22;4343;53.648;10.098;2023-06-10T09:31:17;25.10;99.90
8611;DHT22;4343;53.648;10.098;2023-06-10T09:33:47;25.10;99.90
8611;DHT22;4343;53.648;10.098;2023-06-10T09:36:22;25.10;99.90
8611;DHT22;4343;53.648;10.098;2023-06-10T09:38:49;25.20;99.90
8611;DHT22;4343;53.648;10.098;2023-06-10T09:41:16;25.10;99.90
8611;DHT22;4343;53.648;10.098;2023-06-10T09:43:45;25.10;99.90
8611;DHT22;4343;53.648;10.098;2023-06-10T09:46:18;25.10;99.90
8611;DHT22;4343;53.648;10.098;2023-06-10T09:48:45;25.30;99.90
8611;DHT22;4343;53.648;10.098;2023-06-10T09:51:13;25.40;99.90
8611;DHT22;4343;53.648;10.098;2023-06-10T09:53:38;25.50;99.90
8611;DHT22;4343;53.648;10.098;2023-06-10T09:56:05;25.70;99.90
8611;DHT22;4343;53.648;10.098;2023-06-10T09:58:38;25.80;99.90
8611;DHT22;4343;53.648;10.098;2023-06-10T10:01:11;25.90;99.90
8611;DHT22;4343;53.648;10.098;2023-06-10T10:03:48;26.00;99.90
8611;DHT22;4343;53.648;10.098;2023-06-10T10:06:16;26.00;99.90
8611;DHT22;4343;53.648;10.098;2023-06-10T10:08:42;25.90;99.80
8611;DHT22;4343;53.648;10.098;2023-06-10T10:11:09;26.00;99.90
8611;DHT22;4343;53.648;10.098;2023-06-10T10:13:35;26.00;99.80
8611;DHT22;4343;53.648;10.098;2023-06-10T10:16:09;26.10;99.90
8611;DHT22;4343;53.648;10.098;2023-06-10T10:18:43;26.10;99.80
8611;DHT22;4343;53.648;10.098;2023-06-10T10:21:12;26.30;99.80
8611;DHT22;4343;53.648;10.098;2023-06-10T10:24:01;26.40;99.70
8611;DHT22;4343;53.648;10.098;2023-06-10T10:26:29;26.50;99.80
8611;DHT22;4343;53.648;10.098;2023-06-10T10:29:20;26.50;99.30
8611;DHT22;4343;53.648;10.098;2023-06-10T10:31:51;26.70;99.70
8611;DHT22;4343;53.648;10.098;2023-06-10T10:34:25;26.80;99.90
8611;DHT22;4343;53.648;10.098;2023-06-10T10:36:53;27.00;99.90
8611;DHT22;4343;53.648;10.098;2023-06-10T10:39:20;27.10;99.90
8611;DHT22;4343;53.648;10.098;2023-06-10T10:41:46;27.20;99.90
8611;DHT22;4343;53.648;10.098;2023-06-10T10:44:12;27.40;99.90
8611;DHT22;4343;53.648;10.098;2023-06-10T10:46:42;27.50;99.30
8611;DHT22;4343;53.648;10.098;2023-06-10T10:49:09;27.50;99.20
8611;DHT22;4343;53.648;10.098;2023-06-10T10:51:35;27.60;99.20
8611;DHT22;4343;53.648;10.098;2023-06-10T10:54:14;27.70;98.80
8611;DHT22;4343;53.648;10.098;2023-06-10T10:59:54;27.90;98.70
8611;DHT22;4343;53.648;10.098;2023-06-10T11:05:04;28.20;98.10
8611;DHT22;4343;53.648;10.098;2023-06-10T11:07:31;28.30;97.90
8611;DHT22;4343;53.648;10.098;2023-06-10T11:10:11;28.30;97.60
8611;DHT22;4343;53.648;10.098;2023-06-10T11:15:17;28.40;97.60
8611;DHT22;4343;53.648;10.098;2023-06-10T11:31:25;28.60;96.70
8611;DHT22;4343;53.648;10.098;2023-06-10T11:33:56;28.60;96.90
8611;DHT22;4343;53.648;10.098;2023-06-10T11:36:22;28.70;97.00
8611;DHT22;4343;53.648;10.098;2023-06-10T11:38:49;28.70;96.60
8611;DHT22;4343;53.648;10.098;2023-06-10T11:41:15;28.80;96.50
8611;DHT22;4343;53.648;10.098;2023-06-10T11:43:45;28.80;96.60
8611;DHT22;4343;53.648;10.098;2023-06-10T11:46:12;28.80;96.60
8611;DHT22;4343;53.648;10.098;2023-06-10T11:48:38;28.90;96.60
8611;DHT22;4343;53.648;10.098;2023-06-10T11:51:07;29.00;96.50
8611;DHT22;4343;53.648;10.098;2023-06-10T11:53:33;29.00;95.50
8611;DHT22;4343;53.648;10.098;2023-06-10T11:55:58;29.00;95.80
8611;DHT22;4343;53.648;10.098;2023-06-10T11:58:24;29.10;95.80
8611;DHT22;4343;53.648;10.098;2023-06-10T12:00:53;29.00;95.90
8611;DHT22;4343;53.648;10.098;2023-06-10T12:03:19;29.10;96.00
8611;DHT22;4343;53.648;10.098;2023-06-10T12:06:03;29.20;95.60
8611;DHT22;4343;53.648;10.098;2023-06-10T12:08:29;29.30;95.60
8611;DHT22;4343;53.648;10.098;2023-06-10T12:10:56;29.50;95.70
8611;DHT22;4343;53.648;10.098;2023-06-10T12:13:22;29.60;95.70
8611;DHT22;4343;53.648;10.098;2023-06-10T12:15:49;29.70;95.30
8611;DHT22;4343;53.648;10.098;2023-06-10T12:18:23;29.80;95.20
8611;DHT22;4343;53.648;10.098;2023-06-10T12:20:49;29.90;95.10
8611;DHT22;4343;53.648;10.098;2023-06-10T12:23:17;30.00;95.30
8611;DHT22;4343;53.648;10.098;2023-06-10T12:25:53;30.10;95.00
8611;DHT22;4343;53.648;10.098;2023-06-10T12:28:23;30.30;95.00
8611;DHT22;4343;53.648;10.098;2023-06-10T12:30:49;30.40;94.80
8611;DHT22;4343;53.648;10.098;2023-06-10T12:33:18;30.50;94.80
8611;DHT22;4343;53.648;10.098;2023-06-10T12:35:51;30.60;94.60
8611;DHT22;4343;53.648;10.098;2023-06-10T12:38:24;30.70;94.80
8611;DHT22;4343;53.648;10.098;2023-06-10T12:40:52;30.90;94.40
8611;DHT22;4343;53.648;10.098;2023-06-10T12:43:22;30.90;93.60
8611;DHT22;4343;53.648;10.098;2023-06-10T12:45:49;31.00;93.80
8611;DHT22;4343;53.648;10.098;2023-06-10T12:48:22;31.00;93.10
8611;DHT22;4343;53.648;10.098;2023-06-10T12:50:54;31.00;93.20
8611;DHT22;4343;53.648;10.098;2023-06-10T12:53:21;31.00;92.90
8611;DHT22;4343;53.648;10.098;2023-06-10T12:55:48;31.00;93.00
8611;DHT22;4343;53.648;10.098;2023-06-10T12:58:14;30.90;92.90
8611;DHT22;4343;53.648;10.098;2023-06-10T13:00:40;31.00;93.10
8611;DHT22;4343;53.648;10.098;2023-06-10T13:03:09;31.00;93.20
8611;DHT22;4343;53.648;10.098;2023-06-10T13:05:38;31.00;93.40
8611;DHT22;4343;53.648;10.098;2023-06-10T13:08:05;31.00;93.50
8611;DHT22;4343;53.648;10.098;2023-06-10T13:10:30;31.10;93.60
8611;DHT22;4343;53.648;10.098;2023-06-10T13:12:56;31.30;93.20
8611;DHT22;4343;53.648;10.098;2023-06-10T13:15:22;31.30;92.80
8611;DHT22;4343;53.648;10.098;2023-06-10T13:17:47;31.30;92.60
8611;DHT22;4343;53.648;10.098;2023-06-10T13:20:14;31.20;92.60
8611;DHT22;4343;53.648;10.098;2023-06-10T13:22:41;31.10;92.60
8611;DHT22;4343;53.648;10.098;2023-06-10T13:25:07;31.10;92.80
8611;DHT22;4343;53.648;10.098;2023-06-10T13:27:34;31.10;93.20
8611;DHT22;4343;53.648;10.098;2023-06-10T13:30:00;31.10;93.10
8611;DHT22;4343;53.648;10.098;2023-06-10T13:32:26;31.00;93.10
8611;DHT22;4343;53.648;10.098;2023-06-10T13:34:52;31.10;93.40
8611;DHT22;4343;53.648;10.098;2023-06-10T13:37:19;31.10;93.10
8611;DHT22;4343;53.648;10.098;2023-06-10T13:39:45;31.10;93.10
8611;DHT22;4343;53.648;10.098;2023-06-10T13:42:13;31.10;92.80
8611;DHT22;4343;53.648;10.098;2023-06-10T13:44:39;31.20;92.90
8611;DHT22;4343;53.648;10.098;2023-06-10T13:47:05;31.20;93.20
8611;DHT22;4343;53.648;10.098;2023-06-10T13:49:30;31.20;92.80
8611;DHT22;4343;53.648;10.098;2023-06-10T13:51:56;31.10;92.80
8611;DHT22;4343;53.648;10.098;2023-06-10T13:54:22;31.20;93.00
8611;DHT22;4343;53.648;10.098;2023-06-10T13:56:47;31.10;92.70
8611;DHT22;4343;53.648;10.098;2023-06-10T13:59:13;31.10;92.60
8611;DHT22;4343;53.648;10.098;2023-06-10T14:01:38;31.10;92.50
8611;DHT22;4343;53.648;10.098;2023-06-10T14:04:06;31.10;92.50
8611;DHT22;4343;53.648;10.098;2023-06-10T14:06:32;31.00;92.40
8611;DHT22;4343;53.648;10.098;2023-06-10T14:09:01;30.90;92.10
8611;DHT22;4343;53.648;10.098;2023-06-10T14:11:27;30.70;92.30
8611;DHT22;4343;53.648;10.098;2023-06-10T14:13:53;30.60;92.50
8611;DHT22;4343;53.648;10.098;2023-06-10T14:16:21;30.50;92.50
8611;DHT22;4343;53.648;10.098;2023-06-10T14:18:47;30.40;92.50
8611;DHT22;4343;53.648;10.098;2023-06-10T14:21:12;30.20;92.70
8611;DHT22;4343;53.648;10.098;2023-06-10T14:23:38;30.20;92.90
8611;DHT22;4343;53.648;10.098;2023-06-10T14:26:03;30.10;92.90
8611;DHT22;4343;53.648;10.098;2023-06-10T14:28:30;29.90;92.70
8611;DHT22;4343;53.648;10.098;2023-06-10T14:30:56;29.70;92.70
8611;DHT22;4343;53.648;10.098;2023-06-10T14:33:23;29.50;93.10
8611;DHT22;4343;53.648;10.098;2023-06-10T14:35:48;29.20;93.30
8611;DHT22;4343;53.648;10.098;2023-06-10T14:38:14;29.00;93.60
8611;DHT22;4343;53.648;10.098;2023-06-10T14:40:39;28.80;93.90
8611;DHT22;4343;53.648;10.098;2023-06-10T14:43:05;28.60;94.30
8611;DHT22;4343;53.648;10.098;2023-06-10T14:45:36;28.40;94.50
8611;DHT22;4343;53.648;10.098;2023-06-10T14:48:01;28.20;94.70
8611;DHT22;4343;53.648;10.098;2023-06-10T14:50:27;27.90;95.00
8611;DHT22;4343;53.648;10.098;2023-06-10T14:52:52;27.70;95.00
8611;DHT22;4343;53.648;10.098;2023-06-10T14:55:18;27.50;95.70
8611;DHT22;4343;53.648;10.098;2023-06-10T14:57:44;27.30;95.70
8611;DHT22;4343;53.648;10.098;2023-06-10T15:00:10;27.10;95.80
8611;DHT22;4343;53.648;10.098;2023-06-10T15:02:35;26.80;96.00
8611;DHT22;4343;53.648;10.098;2023-06-10T15:05:01;26.70;96.40
8611;DHT22;4343;53.648;10.098;2023-06-10T15:07:26;26.50;96.50
8611;DHT22;4343;53.648;10.098;2023-06-10T15:09:52;26.40;96.80
8611;DHT22;4343;53.648;10.098;2023-06-10T15:12:17;26.20;97.00
8611;DHT22;4343;53.648;10.098;2023-06-10T15:14:43;26.00;97.30
8611;DHT22;4343;53.648;10.098;2023-06-10T15:17:08;25.80;97.60
8611;DHT22;4343;53.648;10.098;2023-06-10T15:19:34;25.80;97.90
8611;DHT22;4343;53.648;10.098;2023-06-10T15:21:59;25.60;97.80
8611;DHT22;4343;53.648;10.098;2023-06-10T15:24:25;25.50;98.00
8611;DHT22;4343;53.648;10.098;2023-06-10T15:26:50;25.40;98.00
8611;DHT22;4343;53.648;10.098;2023-06-10T15:29:16;25.40;98.10
8611;DHT22;4343;53.648;10.098;2023-06-10T15:31:41;25.30;98.30
8611;DHT22;4343;53.648;10.098;2023-06-10T15:34:07;25.20;98.30
8611;DHT22;4343;53.648;10.098;2023-06-10T15:36:33;25.20;98.50
8611;DHT22;4343;53.648;10.098;2023-06-10T15:39:03;25.10;98.50
8611;DHT22;4343;53.648;10.098;2023-06-10T15:41:29;25.00;98.50
8611;DHT22;4343;53.648;10.098;2023-06-10T15:43:55;25.00;98.50
8611;DHT22;4343;53.648;10.098;2023-06-10T15:46:20;24.90;98.70
8611;DHT22;4343;53.648;10.098;2023-06-10T15:48:46;24.80;98.90
8611;DHT22;4343;53.648;10.098;2023-06-10T15:51:12;24.70;98.90
8611;DHT22;4343;53.648;10.098;2023-06-10T15:53:37;24.70;99.20
8611;DHT22;4343;53.648;10.098;2023-06-10T15:56:03;24.60;98.90
8611;DHT22;4343;53.648;10.098;2023-06-10T15:58:29;24.50;98.70
8611;DHT22;4343;53.648;10.098;2023-06-10T16:00:55;24.40;98.80
8611;DHT22;4343;53.648;10.098;2023-06-10T16:03:20;24.30;98.90
8611;DHT22;4343;53.648;10.098;2023-06-10T16:05:46;24.20;98.90